createdAt,value
2019-05-23T00:01:03.609Z,94662.52
2019-05-23T00:03:38.005Z,94657.10
2019-05-23T00:06:11.500Z,94653.91
2019-05-23T00:08:41.525Z,94651.97
2019-05-23T00:11:32.616Z,94650.94
2019-05-23T00:14:07.678Z,94644.63
2019-05-23T00:16:38.597Z,94644.94
2019-05-23T00:19:09.006Z,94639.11
2019-05-23T00:21:42.718Z,94646.15
2019-05-23T00:24:13.073Z,94638.68
2019-05-23T00:26:43.617Z,94632.96
2019-05-23T00:29:15.002Z,94637.72
2019-05-23T00:31:49.692Z,94645.41
2019-05-23T00:34:19.994Z,94650.84
2019-05-23T00:36:49.652Z,94649.75
2019-05-23T00:39:19.804Z,94647.00
2019-05-23T00:41:50.766Z,94647.00
2019-05-23T00:44:21.042Z,94646.70
2019-05-23T00:46:51.071Z,94644.14
2019-05-23T00:49:20.584Z,94643.55
2019-05-23T00:51:50.524Z,94647.80
2019-05-23T00:54:20.625Z,94657.55
2019-05-23T00:56:50.448Z,94656.34
2019-05-23T00:59:27.138Z,94650.45
2019-05-23T01:01:52.612Z,94648.18
2019-05-23T01:04:22.785Z,94648.50
2019-05-23T01:06:54.064Z,94650.63
2019-05-23T01:09:25.341Z,94651.03
2019-05-23T01:11:55.488Z,94643.70
2019-05-23T01:14:26.348Z,94645.31
2019-05-23T01:16:56.181Z,94647.88
2019-05-23T01:19:26.359Z,94649.05
2019-05-23T01:22:02.521Z,94645.05
2019-05-23T01:24:38.469Z,94641.97
2019-05-23T01:27:08.638Z,94638.83
2019-05-23T01:29:42.202Z,94644.91
2019-05-23T01:32:24.183Z,94645.13
2019-05-23T01:34:54.130Z,94648.27
2019-05-23T01:37:24.837Z,94650.30
2019-05-23T01:39:54.916Z,94649.07
2019-05-23T01:42:25.952Z,94642.84
2019-05-23T01:44:55.874Z,94644.38
2019-05-23T01:47:27.600Z,94643.36
2019-05-23T01:49:58.043Z,94649.00
2019-05-23T01:52:27.834Z,94649.60
2019-05-23T01:54:57.323Z,94646.59
2019-05-23T01:57:26.864Z,94639.64
2019-05-23T02:00:08.792Z,94628.90
2019-05-23T02:02:29.515Z,94632.05
2019-05-23T02:04:59.326Z,94626.06
2019-05-23T02:07:30.238Z,94625.69
2019-05-23T02:10:00.460Z,94621.73
2019-05-23T02:12:30.957Z,94621.53
2019-05-23T02:15:02.095Z,94626.50
2019-05-23T02:17:32.609Z,94624.33
2019-05-23T02:20:03.538Z,94618.17
2019-05-23T02:22:33.461Z,94612.83
2019-05-23T02:25:04.732Z,94608.08
2019-05-23T02:27:34.165Z,94607.44
2019-05-23T02:30:04.616Z,94607.27
2019-05-23T02:32:35.445Z,94607.64
2019-05-23T02:35:05.820Z,94608.08
2019-05-23T02:37:52.887Z,94604.21
2019-05-23T02:40:53.377Z,94607.91
2019-05-23T02:43:25.735Z,94607.22
2019-05-23T02:45:59.903Z,94604.42
2019-05-23T02:48:36.208Z,94608.38
2019-05-23T02:51:10.733Z,94608.02
2019-05-23T02:53:40.643Z,94604.87
2019-05-23T02:56:14.325Z,94606.97
2019-05-23T02:59:04.750Z,94608.88
2019-05-23T03:01:57.382Z,94606.63
2019-05-23T03:04:30.197Z,94608.66
2019-05-23T03:07:03.422Z,94609.84
2019-05-23T03:09:36.182Z,94612.02
2019-05-23T03:12:07.893Z,94610.36
2019-05-23T03:14:39.160Z,94611.38
2019-05-23T03:17:14.103Z,94608.83
2019-05-23T03:19:56.822Z,94613.50
2019-05-23T03:22:31.714Z,94614.09
2019-05-23T03:25:04.612Z,94612.32
2019-05-23T03:27:39.889Z,94617.58
2019-05-23T03:30:14.323Z,94617.80
2019-05-23T03:32:49.284Z,94625.94
2019-05-23T03:35:34.329Z,94624.72
2019-05-23T03:38:04.124Z,94623.55
2019-05-23T03:40:35.974Z,94616.83
2019-05-23T03:43:06.533Z,94624.46
2019-05-23T03:45:40.304Z,94627.17
2019-05-23T03:48:11.680Z,94627.69
2019-05-23T03:50:41.677Z,94630.95
2019-05-23T03:53:12.184Z,94630.16
2019-05-23T03:55:42.575Z,94626.95
2019-05-23T03:58:14.345Z,94627.50
2019-05-23T04:00:52.701Z,94628.76
2019-05-23T04:03:25.080Z,94634.81
2019-05-23T04:05:55.215Z,94631.14
2019-05-23T04:08:24.878Z,94641.15
2019-05-23T04:10:55.353Z,94639.30
2019-05-23T04:13:25.178Z,94635.38
2019-05-23T04:15:54.710Z,94644.61
2019-05-23T04:18:25.176Z,94642.41
2019-05-23T04:20:54.677Z,94645.42
2019-05-23T04:23:24.209Z,94650.15
2019-05-23T04:25:53.723Z,94657.33
2019-05-23T04:28:23.174Z,94656.09
2019-05-23T04:30:53.216Z,94654.51
2019-05-23T04:33:22.827Z,94654.27
2019-05-23T04:35:52.299Z,94650.66
2019-05-23T04:38:21.936Z,94653.17
2019-05-23T04:40:51.493Z,94652.95
2019-05-23T04:43:21.330Z,94657.71
2019-05-23T04:45:50.898Z,94661.00
2019-05-23T04:48:21.016Z,94650.48
2019-05-23T04:50:50.669Z,94658.91
2019-05-23T04:53:22.671Z,94655.02
2019-05-23T04:55:53.133Z,94655.48
2019-05-23T04:58:22.707Z,94658.44
2019-05-23T05:00:52.284Z,94654.61
2019-05-23T05:03:23.796Z,94653.52
2019-05-23T05:05:53.364Z,94656.03
2019-05-23T05:08:22.894Z,94659.55
2019-05-23T05:10:52.543Z,94662.55
2019-05-23T05:13:22.806Z,94664.69
2019-05-23T05:15:52.307Z,94670.47
2019-05-23T05:18:22.361Z,94667.45
2019-05-23T05:20:52.158Z,94663.50
2019-05-23T05:23:21.835Z,94672.58
2019-05-23T05:25:51.438Z,94681.55
2019-05-23T05:28:21.114Z,94679.94
2019-05-23T05:30:50.789Z,94685.02
2019-05-23T05:33:20.542Z,94693.80
2019-05-23T05:35:50.093Z,94692.47
2019-05-23T05:38:19.624Z,94701.78
2019-05-23T05:40:49.629Z,94702.88
2019-05-23T05:43:19.874Z,94703.41
2019-05-23T05:45:49.650Z,94699.92
2019-05-23T05:48:19.217Z,94710.22
2019-05-23T05:50:48.807Z,94708.98
2019-05-23T05:53:18.804Z,94712.25
2019-05-23T05:55:48.277Z,94712.69
2019-05-23T05:58:17.717Z,94712.02
2019-05-23T06:00:58.850Z,94715.38
2019-05-23T06:03:28.711Z,94712.39
2019-05-23T06:06:10.790Z,94705.90
2019-05-23T06:08:42.416Z,94706.48
2019-05-23T06:11:12.455Z,94702.56
2019-05-23T06:13:42.217Z,94701.84
2019-05-23T06:16:11.694Z,94705.55
2019-05-23T06:18:41.297Z,94704.93
2019-05-23T06:21:12.324Z,94712.90
2019-05-23T06:23:43.889Z,94710.14
2019-05-23T06:26:13.413Z,94707.95
2019-05-23T06:28:44.510Z,94715.24
2019-05-23T06:31:14.296Z,94709.88
2019-05-23T06:33:44.345Z,94714.25
2019-05-23T06:36:14.503Z,94712.86
2019-05-23T06:38:44.174Z,94712.95
2019-05-23T06:41:14.295Z,94718.34
2019-05-23T06:43:44.012Z,94714.66
2019-05-23T06:46:16.387Z,94716.11
2019-05-23T06:48:46.206Z,94714.75
2019-05-23T06:51:15.955Z,94716.98
2019-05-23T06:53:45.834Z,94719.72
2019-05-23T06:56:15.678Z,94703.81
2019-05-23T06:58:45.364Z,94705.47
2019-05-23T07:01:14.858Z,94705.84
2019-05-23T07:03:44.365Z,94710.44
2019-05-23T07:06:16.977Z,94710.52
2019-05-23T07:08:46.590Z,94712.66
2019-05-23T07:11:19.919Z,94713.63
2019-05-23T07:13:49.622Z,94704.16
2019-05-23T07:16:19.643Z,94706.69
2019-05-23T07:18:49.153Z,94702.98
2019-05-23T07:21:18.668Z,94712.03
2019-05-23T07:23:48.148Z,94700.83
2019-05-23T07:26:17.701Z,94701.80
2019-05-23T07:28:47.294Z,94713.75
2019-05-23T07:31:17.662Z,94708.96
2019-05-23T07:34:01.035Z,94719.13
2019-05-23T07:36:18.864Z,94710.36
2019-05-23T07:38:48.461Z,94707.27
2019-05-23T07:41:18.325Z,94714.93
2019-05-23T07:43:47.900Z,94706.23
2019-05-23T07:46:17.415Z,94701.21
2019-05-23T07:48:46.886Z,94692.93
2019-05-23T07:51:16.683Z,94700.12
2019-05-23T07:54:05.217Z,94707.70
2019-05-23T07:56:36.527Z,94705.02
2019-05-23T07:59:06.178Z,94706.07
2019-05-23T08:01:38.095Z,94714.13
2019-05-23T08:04:20.532Z,94718.52
2019-05-23T08:06:40.280Z,94712.61
2019-05-23T08:09:11.301Z,94708.41
2019-05-23T08:11:40.869Z,94709.16
2019-05-23T08:14:12.200Z,94719.86
2019-05-23T08:16:42.088Z,94716.54
2019-05-23T08:19:11.658Z,94719.41
2019-05-23T08:21:41.175Z,94716.99
2019-05-23T08:24:12.355Z,94708.19
2019-05-23T08:26:41.971Z,94723.56
2019-05-23T08:29:25.485Z,94711.78
2019-05-23T08:31:43.401Z,94702.73
2019-05-23T08:34:12.863Z,94702.67
2019-05-23T08:36:42.874Z,94708.28
2019-05-23T08:39:12.470Z,94717.29
2019-05-23T08:41:42.269Z,94711.78
2019-05-23T08:44:12.000Z,94706.94
2019-05-23T08:46:42.177Z,94704.13
2019-05-23T08:49:11.947Z,94704.06
2019-05-23T08:51:41.516Z,94713.05
2019-05-23T08:54:11.009Z,94698.44
2019-05-23T08:56:40.631Z,94705.17
2019-05-23T08:59:10.902Z,94709.09
2019-05-23T09:01:40.805Z,94701.52
2019-05-23T09:04:10.436Z,94696.03
2019-05-23T09:06:40.240Z,94690.32
2019-05-23T09:09:28.368Z,94689.30
2019-05-23T09:11:42.281Z,94689.42
2019-05-23T09:14:11.937Z,94686.05
2019-05-23T09:16:41.871Z,94692.12
2019-05-23T09:19:11.361Z,94691.52
2019-05-23T09:21:41.093Z,94684.63
2019-05-23T09:24:11.498Z,94692.05
2019-05-23T09:26:41.088Z,94677.71
2019-05-23T09:29:10.748Z,94670.02
2019-05-23T09:31:40.426Z,94662.95
2019-05-23T09:34:09.925Z,94662.30
2019-05-23T09:36:39.541Z,94656.19
2019-05-23T09:39:10.963Z,94671.91
2019-05-23T09:41:41.083Z,94661.67
2019-05-23T09:44:10.669Z,94655.81
2019-05-23T09:46:40.225Z,94652.42
2019-05-23T09:49:11.203Z,94652.99
2019-05-23T09:51:41.072Z,94654.06
2019-05-23T09:54:11.049Z,94644.23
2019-05-23T09:56:40.626Z,94662.42
2019-05-23T09:59:10.221Z,94644.56
2019-05-23T10:01:39.757Z,94657.33
2019-05-23T10:04:10.234Z,94649.06
2019-05-23T10:06:39.711Z,94643.28
2019-05-23T10:09:09.725Z,94648.63
2019-05-23T10:11:39.317Z,94633.17
2019-05-23T10:14:13.092Z,94634.82
2019-05-23T10:16:42.610Z,94620.80
2019-05-23T10:19:12.099Z,94637.25
2019-05-23T10:21:41.641Z,94634.30
2019-05-23T10:24:11.297Z,94631.92
2019-05-23T10:26:40.806Z,94619.73
2019-05-23T10:29:10.248Z,94614.19
2019-05-23T10:31:39.741Z,94615.50
2019-05-23T10:34:09.291Z,94617.94
2019-05-23T10:36:38.747Z,94615.30
2019-05-23T10:39:10.758Z,94598.85
2019-05-23T10:41:40.399Z,94593.52
2019-05-23T10:44:10.300Z,94598.85
2019-05-23T10:46:39.734Z,94596.47
2019-05-23T10:49:09.587Z,94591.20
2019-05-23T10:51:39.115Z,94590.63
2019-05-23T10:54:08.585Z,94602.59
2019-05-23T10:56:38.729Z,94570.64
2019-05-23T10:59:08.324Z,94572.23
2019-05-23T11:01:38.010Z,94566.96
2019-05-23T11:04:08.613Z,94572.51
2019-05-23T11:06:38.186Z,94575.96
2019-05-23T11:09:09.393Z,94574.41
2019-05-23T11:11:38.960Z,94566.12
2019-05-23T11:14:09.336Z,94559.73
2019-05-23T11:16:39.204Z,94547.22
2019-05-23T11:19:09.669Z,94534.44
2019-05-23T11:21:39.533Z,94537.64
2019-05-23T11:24:10.061Z,94549.88
2019-05-23T11:26:39.579Z,94545.12
2019-05-23T11:29:09.374Z,94542.46
2019-05-23T11:31:39.260Z,94524.08
2019-05-23T11:34:09.023Z,94537.38
2019-05-23T11:36:38.653Z,94520.29
2019-05-23T11:39:09.215Z,94528.80
2019-05-23T11:41:38.735Z,94533.03
2019-05-23T11:44:08.357Z,94521.30
2019-05-23T11:46:41.475Z,94533.33
2019-05-23T11:49:11.113Z,94531.22
2019-05-23T11:51:40.614Z,94516.53
2019-05-23T11:54:10.569Z,94506.11
2019-05-23T11:56:40.163Z,94505.04
2019-05-23T11:59:10.088Z,94506.37
2019-05-23T12:01:48.256Z,94491.44
2019-05-23T12:04:22.390Z,94487.14
2019-05-23T12:07:16.710Z,94489.55
2019-05-23T12:09:46.394Z,94491.91
2019-05-23T12:12:15.888Z,94501.01
2019-05-23T12:14:45.453Z,94478.38
2019-05-23T12:17:16.773Z,94486.91
2019-05-23T12:19:46.478Z,94474.42
2019-05-23T12:22:18.290Z,94476.24
2019-05-23T12:24:47.902Z,94478.08
2019-05-23T12:27:17.641Z,94464.73
2019-05-23T12:29:47.117Z,94462.83
2019-05-23T12:32:16.860Z,94471.05
2019-05-23T12:35:08.012Z,94479.31
2019-05-23T12:37:20.160Z,94476.66
2019-05-23T12:39:48.975Z,94461.34
2019-05-23T12:42:18.582Z,94460.05
2019-05-23T12:44:48.134Z,94467.63
2019-05-23T12:47:25.386Z,94458.30
2019-05-23T12:50:00.468Z,94461.45
2019-05-23T12:52:29.963Z,94460.66
2019-05-23T12:54:59.642Z,94452.11
2019-05-23T12:57:29.336Z,94450.61
2019-05-23T12:59:59.245Z,94459.45
2019-05-23T13:02:29.056Z,94462.07
2019-05-23T13:04:59.406Z,94447.67
2019-05-23T13:07:36.396Z,94447.09
2019-05-23T13:10:00.671Z,94458.20
2019-05-23T13:12:30.145Z,94467.27
2019-05-23T13:14:59.628Z,94448.27
2019-05-23T13:17:29.134Z,94454.23
2019-05-23T13:19:58.616Z,94454.34
2019-05-23T13:22:28.527Z,94452.95
2019-05-23T13:24:58.015Z,94456.21
2019-05-23T13:27:27.925Z,94455.40
2019-05-23T13:29:57.420Z,94462.39
2019-05-23T13:32:26.977Z,94460.52
2019-05-23T13:34:56.550Z,94457.58
2019-05-23T13:37:26.177Z,94477.88
2019-05-23T13:39:55.672Z,94465.92
2019-05-23T13:42:25.429Z,94472.09
2019-05-23T13:44:55.068Z,94468.91
2019-05-23T13:47:24.533Z,94470.48
2019-05-23T13:49:54.182Z,94464.88
2019-05-23T13:52:23.631Z,94468.78
2019-05-23T13:54:53.103Z,94461.32
2019-05-23T13:57:22.648Z,94454.88
2019-05-23T13:59:52.091Z,94460.25
2019-05-23T14:02:21.612Z,94456.52
2019-05-23T14:04:51.468Z,94443.19
2019-05-23T14:07:20.953Z,94452.43
2019-05-23T14:09:50.587Z,94445.98
2019-05-23T14:12:21.680Z,94440.38
2019-05-23T14:14:51.627Z,94435.83
2019-05-23T14:17:42.547Z,94436.05
2019-05-23T14:20:12.863Z,94428.86
2019-05-23T14:22:47.617Z,94436.85
2019-05-23T14:25:17.797Z,94436.37
2019-05-23T14:27:55.751Z,94426.28
2019-05-23T14:30:43.232Z,94432.20
2019-05-23T14:33:27.141Z,94415.94
2019-05-23T14:35:57.030Z,94413.00
2019-05-23T14:38:31.170Z,94418.56
2019-05-23T14:41:00.013Z,94420.91
2019-05-23T14:43:29.786Z,94413.38
2019-05-23T14:46:24.527Z,94413.64
2019-05-23T14:49:16.166Z,94422.97
2019-05-23T14:51:55.532Z,94422.13
2019-05-23T14:54:37.526Z,94413.91
2019-05-23T14:57:07.613Z,94406.31
2019-05-23T14:59:37.154Z,94415.49
2019-05-23T15:02:10.718Z,94409.22
2019-05-23T15:04:40.472Z,94408.48
2019-05-23T15:07:10.065Z,94405.00
2019-05-23T15:09:39.570Z,94406.27
2019-05-23T15:12:09.123Z,94403.98
2019-05-23T15:14:38.691Z,94389.84
2019-05-23T15:17:08.259Z,94396.27
2019-05-23T15:19:44.258Z,94395.52
2019-05-23T15:22:13.316Z,94400.81
2019-05-23T15:24:42.939Z,94393.60
2019-05-23T15:27:12.492Z,94395.68
2019-05-23T15:29:42.278Z,94404.52
2019-05-23T15:32:11.747Z,94404.78
2019-05-23T15:34:41.582Z,94413.27
2019-05-23T15:37:11.039Z,94407.95
2019-05-23T15:39:40.523Z,94406.93
2019-05-23T15:42:09.992Z,94419.50
2019-05-23T15:44:39.569Z,94415.78
2019-05-23T15:47:10.413Z,94413.65
2019-05-23T15:49:41.805Z,94406.48
2019-05-23T15:52:36.651Z,94404.63
2019-05-23T15:55:25.577Z,94405.69
2019-05-23T15:58:03.899Z,94410.72
2019-05-23T16:00:55.205Z,94410.18
2019-05-23T16:03:34.143Z,94411.02
2019-05-23T16:06:05.069Z,94423.55
2019-05-23T16:08:34.595Z,94416.15
2019-05-23T16:11:04.072Z,94411.05
2019-05-23T16:13:34.049Z,94416.38
2019-05-23T16:16:04.015Z,94401.20
2019-05-23T16:18:34.481Z,94414.75
2019-05-23T16:21:03.967Z,94413.19
2019-05-23T16:23:33.416Z,94412.16
2019-05-23T16:26:02.992Z,94415.14
2019-05-23T16:28:32.448Z,94404.75
2019-05-23T16:31:01.942Z,94406.34
2019-05-23T16:33:31.409Z,94419.42
2019-05-23T16:36:00.907Z,94416.48
2019-05-23T16:38:30.374Z,94425.58
2019-05-23T16:40:59.839Z,94417.84
2019-05-23T16:43:29.309Z,94423.69
2019-05-23T16:45:58.859Z,94430.88
2019-05-23T16:48:29.993Z,94430.34
2019-05-23T16:50:59.564Z,94429.30
2019-05-23T16:53:29.838Z,94429.02
2019-05-23T16:56:05.620Z,94426.09
2019-05-23T16:58:47.466Z,94428.50
2019-05-23T17:01:35.853Z,94433.27
2019-05-23T17:04:21.222Z,94434.87
2019-05-23T17:07:09.651Z,94430.61
2019-05-23T17:10:08.200Z,94434.35
2019-05-23T17:12:57.364Z,94441.53
2019-05-23T17:15:55.036Z,94440.16
2019-05-23T17:18:52.435Z,94448.08
2019-05-23T17:21:56.512Z,94447.50
2019-05-23T17:24:34.044Z,94451.98
2019-05-23T17:27:09.054Z,94454.63
2019-05-23T17:29:43.332Z,94457.52
2019-05-23T17:32:15.432Z,94459.13
2019-05-23T17:34:44.909Z,94456.99
2019-05-23T17:37:14.370Z,94461.48
2019-05-23T17:39:45.761Z,94462.52
2019-05-23T17:42:15.332Z,94471.30
2019-05-23T17:44:44.828Z,94470.13
2019-05-23T17:47:15.135Z,94477.30
2019-05-23T17:49:44.972Z,94477.55
2019-05-23T17:52:14.718Z,94481.24
2019-05-23T17:54:44.185Z,94482.28
2019-05-23T17:57:14.139Z,94493.31
2019-05-23T17:59:43.594Z,94488.92
2019-05-23T18:02:13.959Z,94490.75
2019-05-23T18:04:43.530Z,94487.55
2019-05-23T18:07:13.670Z,94486.66
2019-05-23T18:09:43.150Z,94483.34
2019-05-23T18:12:12.814Z,94492.25
2019-05-23T18:14:43.017Z,94493.79
2019-05-23T18:17:12.705Z,94500.66
2019-05-23T18:19:42.478Z,94504.78
2019-05-23T18:22:14.161Z,94497.07
2019-05-23T18:24:43.712Z,94501.78
2019-05-23T18:27:13.920Z,94504.19
2019-05-23T18:29:43.948Z,94508.13
2019-05-23T18:32:19.239Z,94517.92
2019-05-23T18:34:49.068Z,94522.11
2019-05-23T18:37:19.695Z,94522.59
2019-05-23T18:39:49.856Z,94524.12
2019-05-23T18:42:19.776Z,94530.27
2019-05-23T18:44:50.577Z,94537.73
2019-05-23T18:47:31.596Z,94535.68
2019-05-23T18:50:01.350Z,94536.23
2019-05-23T18:52:31.018Z,94539.41
2019-05-23T18:55:00.591Z,94539.22
2019-05-23T18:57:30.287Z,94535.41
2019-05-23T19:00:00.097Z,94535.91
2019-05-23T19:02:30.103Z,94534.74
2019-05-23T19:04:59.678Z,94533.62
2019-05-23T19:07:29.260Z,94536.75
2019-05-23T19:09:59.386Z,94530.84
2019-05-23T19:12:28.889Z,94535.72
2019-05-23T19:14:58.431Z,94541.02
2019-05-23T19:17:27.970Z,94544.98
2019-05-23T19:19:57.625Z,94546.73
2019-05-23T19:22:27.883Z,94552.83
2019-05-23T19:24:57.322Z,94564.70
2019-05-23T19:27:27.271Z,94562.09
2019-05-23T19:29:57.936Z,94560.73
2019-05-23T19:32:27.714Z,94570.80
2019-05-23T19:34:57.315Z,94567.81
2019-05-23T19:37:27.175Z,94571.97
2019-05-23T19:39:56.665Z,94569.84
2019-05-23T19:42:26.490Z,94574.38
2019-05-23T19:44:55.997Z,94576.23
2019-05-23T19:47:25.684Z,94575.23
2019-05-23T19:49:55.240Z,94576.33
2019-05-23T19:52:25.663Z,94573.68
2019-05-23T19:54:55.393Z,94573.90
2019-05-23T19:57:25.483Z,94572.81
2019-05-23T19:59:55.192Z,94565.58
2019-05-23T20:02:45.501Z,94564.36
2019-05-23T20:05:34.889Z,94564.27
2019-05-23T20:08:04.508Z,94565.94
2019-05-23T20:10:34.438Z,94566.04
2019-05-23T20:13:04.083Z,94569.20
2019-05-23T20:15:33.716Z,94564.89
2019-05-23T20:18:03.358Z,94567.78
2019-05-23T20:20:35.155Z,94563.28
2019-05-23T20:23:04.780Z,94563.41
2019-05-23T20:25:34.513Z,94561.89
2019-05-23T20:28:04.144Z,94562.70
2019-05-23T20:31:03.638Z,94563.05
2019-05-23T20:33:33.732Z,94561.55
2019-05-23T20:36:12.296Z,94566.86
2019-05-23T20:38:41.462Z,94570.36
2019-05-23T20:41:10.936Z,94561.57
2019-05-23T20:43:40.434Z,94559.89
2019-05-23T20:46:09.991Z,94562.77
2019-05-23T20:48:39.981Z,94562.41
2019-05-23T20:51:09.502Z,94562.55
2019-05-23T20:53:39.190Z,94560.34
2019-05-23T20:56:08.664Z,94561.38
2019-05-23T20:58:38.368Z,94563.71
2019-05-23T21:01:16.206Z,94562.94
2019-05-23T21:03:45.540Z,94557.64
2019-05-23T21:06:15.566Z,94556.42
2019-05-23T21:08:45.116Z,94554.40
2019-05-23T21:11:14.726Z,94558.80
2019-05-23T21:13:44.178Z,94558.72
2019-05-23T21:16:13.715Z,94557.20
2019-05-23T21:18:43.354Z,94555.65
2019-05-23T21:21:12.824Z,94553.95
2019-05-23T21:23:42.320Z,94558.20
2019-05-23T21:26:11.775Z,94552.81
2019-05-23T21:28:41.676Z,94560.45
2019-05-23T21:31:15.500Z,94555.66
2019-05-23T21:33:44.953Z,94560.36
2019-05-23T21:36:14.437Z,94556.98
2019-05-23T21:38:43.927Z,94550.40
2019-05-23T21:41:13.375Z,94551.55
2019-05-23T21:43:43.674Z,94551.89
2019-05-23T21:46:13.165Z,94554.09
2019-05-23T21:48:42.660Z,94553.26
2019-05-23T21:51:12.116Z,94548.14
2019-05-23T21:53:41.585Z,94549.60
2019-05-23T21:56:11.041Z,94545.23
2019-05-23T21:58:40.541Z,94543.52
2019-05-23T22:01:33.516Z,94548.16
2019-05-23T22:04:14.096Z,94544.45
2019-05-23T22:06:50.232Z,94541.47
2019-05-23T22:09:20.117Z,94541.86
2019-05-23T22:11:50.008Z,94536.65
2019-05-23T22:14:19.529Z,94537.58
2019-05-23T22:16:49.025Z,94533.11
2019-05-23T22:19:20.913Z,94535.40
2019-05-23T22:21:50.385Z,94539.84
2019-05-23T22:24:20.727Z,94535.52
2019-05-23T22:26:50.235Z,94538.00
2019-05-23T22:29:19.723Z,94534.84
2019-05-23T22:31:49.273Z,94535.02
2019-05-23T22:34:37.688Z,94537.42
2019-05-23T22:37:15.644Z,94531.18
2019-05-23T22:39:45.173Z,94533.53
2019-05-23T22:42:15.828Z,94523.27
2019-05-23T22:44:45.411Z,94522.78
2019-05-23T22:47:14.914Z,94523.36
2019-05-23T22:49:44.390Z,94527.09
2019-05-23T22:52:13.855Z,94527.41
2019-05-23T22:54:43.456Z,94521.75
2019-05-23T22:57:13.057Z,94516.53
2019-05-23T22:59:42.601Z,94517.80
2019-05-23T23:02:15.078Z,94513.90
2019-05-23T23:04:44.583Z,94508.69
2019-05-23T23:07:14.208Z,94511.94
2019-05-23T23:09:43.763Z,94510.98
2019-05-23T23:12:13.244Z,94510.88
2019-05-23T23:14:42.752Z,94508.63
2019-05-23T23:17:12.280Z,94513.00
2019-05-23T23:19:41.795Z,94511.39
2019-05-23T23:22:13.517Z,94503.70
2019-05-23T23:24:43.050Z,94501.45
2019-05-23T23:27:12.603Z,94507.40
2019-05-23T23:29:42.100Z,94502.53
2019-05-23T23:32:11.741Z,94500.41
2019-05-23T23:34:41.278Z,94497.27
2019-05-23T23:37:10.752Z,94497.02
2019-05-23T23:39:40.289Z,94493.23
2019-05-23T23:42:10.122Z,94491.65
2019-05-23T23:44:38.603Z,94487.95
2019-05-23T23:47:26.118Z,94487.22
2019-05-23T23:50:13.434Z,94490.37
2019-05-23T23:53:00.423Z,94489.45
2019-05-23T23:55:47.888Z,94488.45
2019-05-23T23:58:16.463Z,94485.97
